Time;durP1;ratioP1;P1;durP2;ratioP2;P2;SDS_P1;SDS_P2;PMS_P1;PMS_P2;Temp;Humidity;BMP_temperature;BMP_pressure;BME280_temperature;BME280_humidity;BME280_pressure;Samples;Min_cycle;Max_cycle;Signal;HPM_P1;HPM_P2
2023/08/11 00:01:01;;;;;;;4.20;3.90;;;20.50;49.80;;;;;;20536;6837;277503;-71
2023/08/11 00:03:26;;;;;;;3.50;3.30;;;20.50;49.80;;;;;;20754;6837;116093;-71
2023/08/11 00:05:55;;;;;;;3.90;3.70;;;20.40;49.60;;;;;;20545;6837;332772;-71
2023/08/11 00:08:21;;;;;;;4.30;3.90;;;20.50;50.00;;;;;;20538;6837;308286;-72
2023/08/11 00:10:46;;;;;;;3.50;3.30;;;20.70;49.80;;;;;;20739;6837;119330;-72
2023/08/11 00:13:13;;;;;;;4.40;4.10;;;20.50;50.10;;;;;;20537;6837;287574;-71
2023/08/11 00:15:39;;;;;;;4.20;3.90;;;20.50;50.10;;;;;;20542;6839;306965;-72
2023/08/11 00:18:04;;;;;;;3.90;3.70;;;20.70;49.50;;;;;;20550;6834;307835;-72
2023/08/11 00:20:30;;;;;;;3.90;3.70;;;20.90;49.20;;;;;;20541;6839;282181;-72
2023/08/11 00:22:56;;;;;;;3.23;3.03;;;21.00;49.30;;;;;;20739;6837;119719;-71
2023/08/11 00:25:21;;;;;;;3.80;3.40;;;20.70;49.30;;;;;;20750;6839;119345;-71
2023/08/11 00:27:47;;;;;;;5.63;3.77;;;20.30;49.80;;;;;;20765;6834;117052;-71
2023/08/11 00:30:13;;;;;;;3.90;3.60;;;19.70;50.50;;;;;;20748;6839;123842;-71
2023/08/11 00:32:39;;;;;;;3.80;3.50;;;19.60;50.40;;;;;;20698;6854;118919;-71
2023/08/11 00:35:05;;;;;;;4.07;3.72;;;19.30;51.20;;;;;;20726;6839;117328;-70
2023/08/11 00:37:31;;;;;;;3.70;3.17;;;19.30;51.20;;;;;;20713;6839;118044;-71
2023/08/11 00:39:57;;;;;;;4.30;4.00;;;19.20;51.60;;;;;;20737;6839;123464;-71
2023/08/11 00:42:22;;;;;;;4.03;3.83;;;19.10;51.70;;;;;;20552;6835;277515;-71
2023/08/11 00:44:47;;;;;;;3.80;3.60;;;19.30;52.30;;;;;;20722;6839;122078;-71
2023/08/11 00:47:13;;;;;;;4.12;3.78;;;19.40;52.10;;;;;;20526;6839;301827;-71
2023/08/11 00:49:39;;;;;;;4.20;3.90;;;19.60;52.40;;;;;;20745;6839;117394;-71
2023/08/11 00:52:04;;;;;;;4.40;4.10;;;19.60;52.10;;;;;;20522;6839;306628;-71
2023/08/11 00:54:32;;;;;;;3.80;3.50;;;19.80;51.90;;;;;;20740;6839;116247;-71
2023/08/11 00:56:59;;;;;;;4.50;4.20;;;19.40;51.60;;;;;;20731;6835;119697;-71
2023/08/11 00:59:24;;;;;;;4.07;3.70;;;19.40;51.60;;;;;;20738;6839;116447;-71
2023/08/11 01:01:52;;;;;;;4.17;3.87;;;19.00;52.00;;;;;;20736;6839;119943;-71
2023/08/11 01:04:18;;;;;;;6.10;3.83;;;19.00;52.00;;;;;;20758;6835;117413;-71
2023/08/11 01:06:47;;;;;;;4.57;4.25;;;19.10;52.90;;;;;;20512;6839;308457;-72
2023/08/11 01:09:22;;;;;;;3.77;3.53;;;19.10;52.90;;;;;;20710;6838;122578;-71
2023/08/11 01:12:11;;;;;;;4.07;3.70;;;19.10;52.50;;;;;;20725;6839;116978;-71
2023/08/11 01:14:50;;;;;;;4.37;4.07;;;19.20;53.10;;;;;;20461;6854;308091;-71
2023/08/11 01:17:16;;;;;;;3.60;3.40;;;19.20;53.00;;;;;;20741;6839;120000;-72
2023/08/11 01:19:41;;;;;;;4.20;4.00;;;19.20;52.50;;;;;;20732;6839;117146;-72
2023/08/11 01:22:10;;;;;;;3.70;3.40;;;19.00;52.50;;;;;;20747;6834;116446;-71
2023/08/11 01:24:36;;;;;;;4.25;3.95;;;18.90;52.80;;;;;;20515;6839;282272;-72
2023/08/11 01:27:01;;;;;;;3.47;3.23;;;19.10;52.50;;;;;;20711;6839;119405;-72
2023/08/11 01:29:27;;;;;;;4.07;3.78;;;19.10;53.00;;;;;;20535;6834;306362;-72
2023/08/11 01:31:52;;;;;;;4.30;4.10;;;19.30;52.80;;;;;;20533;6834;320432;-72
2023/08/11 01:34:18;;;;;;;4.50;4.20;;;19.60;52.10;;;;;;20541;6834;278409;-72
2023/08/11 01:36:43;;;;;;;4.20;3.90;;;19.80;51.20;;;;;;20506;6839;307478;-72
2023/08/11 01:39:13;;;;;;;4.20;3.97;;;20.00;50.70;;;;;;20476;6854;308494;-72
2023/08/11 01:41:38;;;;;;;4.30;3.90;;;20.10;50.30;;;;;;20731;6839;119830;-72
2023/08/11 01:44:04;;;;;;;4.03;3.80;;;19.40;51.10;;;;;;20742;6839;119187;-72
2023/08/11 01:46:30;;;;;;;4.20;3.83;;;19.40;51.10;;;;;;20742;6839;119443;-72
2023/08/11 01:48:55;;;;;;;4.53;4.20;;;19.10;51.60;;;;;;20527;6835;277067;-71
2023/08/11 01:51:21;;;;;;;4.32;4.00;;;19.20;52.10;;;;;;20752;6835;121287;-71
2023/08/11 01:53:46;;;;;;;4.20;3.90;;;19.20;52.20;;;;;;20524;6839;307868;-72
2023/08/11 01:56:12;;;;;;;3.77;3.57;;;19.30;52.30;;;;;;20687;6854;117340;-71
2023/08/11 01:58:37;;;;;;;3.87;3.67;;;19.20;52.30;;;;;;20684;6854;116348;-71
2023/08/11 02:01:03;;;;;;;3.67;3.47;;;19.00;52.50;;;;;;20714;6839;119596;-71
2023/08/11 02:03:28;;;;;;;4.37;4.03;;;18.80;52.60;;;;;;20527;6839;310841;-71
2023/08/11 02:05:55;;;;;;;4.23;4.03;;;18.90;52.80;;;;;;20727;6839;119739;-71
2023/08/11 02:08:20;;;;;;;3.80;3.60;;;18.80;52.60;;;;;;20737;6839;119628;-71
2023/08/11 02:10:45;;;;;;;4.67;3.63;;;18.70;53.10;;;;;;20706;6839;117499;-71
2023/08/11 02:13:12;;;;;;;4.10;3.80;;;18.30;53.40;;;;;;20743;6837;118357;-71
2023/08/11 02:15:37;;;;;;;4.23;3.93;;;18.30;53.30;;;;;;20727;6839;118268;-71
2023/08/11 02:18:03;;;;;;;4.03;3.80;;;18.20;53.50;;;;;;20694;6854;117300;-71
2023/08/11 02:20:29;;;;;;;5.10;3.77;;;18.10;53.70;;;;;;20722;6838;123266;-71
2023/08/11 02:22:54;;;;;;;4.12;3.80;;;18.00;53.90;;;;;;20675;6853;117198;-71
2023/08/11 02:25:25;;;;;;;4.73;4.43;;;17.90;54.10;;;;;;20526;6839;307184;-71
2023/08/11 02:27:47;;;;;;;4.93;4.20;;;18.20;54.70;;;;;;20662;6854;117140;-71
2023/08/11 02:30:12;;;;;;;5.07;4.67;;;18.30;54.40;;;;;;20529;6839;321603;-71
2023/08/11 02:32:38;;;;;;;4.07;3.87;;;18.50;54.70;;;;;;20739;6839;119273;-71
2023/08/11 02:35:05;;;;;;;4.20;3.93;;;18.30;54.50;;;;;;20734;6834;119302;-71
2023/08/11 02:37:31;;;;;;;4.50;3.83;;;18.30;54.50;;;;;;20695;6854;119351;-71
2023/08/11 02:39:56;;;;;;;5.00;4.60;;;18.20;54.80;;;;;;20537;6839;306468;-71
2023/08/11 02:42:24;;;;;;;5.10;4.65;;;18.40;54.90;;;;;;20526;6839;312046;-71
2023/08/11 02:44:48;;;;;;;4.83;4.43;;;18.80;54.30;;;;;;20713;6839;119255;-71
2023/08/11 02:47:14;;;;;;;5.43;5.03;;;18.90;54.80;;;;;;20491;6854;280077;-71
2023/08/11 02:49:39;;;;;;;5.40;5.00;;;18.90;54.10;;;;;;20535;6839;313204;-71
2023/08/11 02:52:05;;;;;;;5.20;4.67;;;19.20;53.80;;;;;;20764;6834;117510;-71
2023/08/11 02:54:31;;;;;;;5.00;4.70;;;19.10;53.70;;;;;;20524;6839;304607;-71
2023/08/11 02:56:57;;;;;;;5.32;4.93;;;19.20;53.60;;;;;;20713;6839;117649;-71
2023/08/11 02:59:23;;;;;;;5.43;5.12;;;19.10;53.70;;;;;;20536;6837;310064;-71
2023/08/11 03:01:49;;;;;;;4.70;4.30;;;19.20;53.60;;;;;;20748;6839;122581;-71
2023/08/11 03:04:16;;;;;;;4.97;4.18;;;18.70;53.80;;;;;;20740;6839;117203;-71
2023/08/11 03:06:42;;;;;;;4.87;4.40;;;18.80;53.90;;;;;;20673;6854;117305;-71
2023/08/11 03:09:07;;;;;;;5.00;4.62;;;18.50;54.30;;;;;;20504;6839;277952;-71
2023/08/11 03:11:32;;;;;;;4.28;3.97;;;18.60;54.60;;;;;;20733;6839;117647;-71
2023/08/11 03:13:57;;;;;;;5.00;4.60;;;18.60;54.50;;;;;;20526;6839;283712;-71
2023/08/11 03:16:25;;;;;;;5.20;4.80;;;18.70;54.70;;;;;;20528;6839;307497;-71
2023/08/11 03:18:49;;;;;;;5.32;5.03;;;19.00;53.80;;;;;;20507;6839;286911;-71
2023/08/11 03:21:14;;;;;;;6.10;5.60;;;19.30;53.40;;;;;;20479;6854;309782;-71
2023/08/11 03:23:40;;;;;;;5.12;4.82;;;19.40;53.00;;;;;;20530;6839;278198;-71
2023/08/11 03:26:05;;;;;;;5.57;5.10;;;19.50;53.10;;;;;;20534;6839;307573;-71
2023/08/11 03:28:31;;;;;;;5.07;4.68;;;19.60;52.80;;;;;;20692;6854;122728;-71
2023/08/11 03:30:56;;;;;;;4.85;4.55;;;19.40;53.00;;;;;;20728;6839;120493;-71
2023/08/11 03:33:22;;;;;;;5.10;4.73;;;19.00;53.60;;;;;;20730;6837;120163;-72
2023/08/11 03:35:48;;;;;;;5.50;5.12;;;18.70;54.10;;;;;;20467;6854;310682;-71
2023/08/11 03:38:14;;;;;;;4.93;4.50;;;18.80;54.30;;;;;;20734;6839;117578;-71
2023/08/11 03:40:39;;;;;;;5.37;4.87;;;18.70;54.20;;;;;;20740;6839;119241;-71
2023/08/11 03:43:05;;;;;;;5.18;4.78;;;18.60;54.60;;;;;;20725;6839;119947;-71
2023/08/11 03:45:30;;;;;;;5.60;5.10;;;18.40;54.90;;;;;;20736;6839;119243;-71
2023/08/11 03:47:56;;;;;;;5.60;5.20;;;18.20;55.00;;;;;;20534;6839;307088;-71
2023/08/11 03:50:21;;;;;;;5.83;5.43;;;18.50;55.20;;;;;;20524;6839;314613;-71
2023/08/11 03:52:47;;;;;;;5.80;5.37;;;18.80;54.60;;;;;;20514;6839;291446;-71
2023/08/11 03:55:13;;;;;;;6.07;5.60;;;19.20;54.00;;;;;;20531;6839;317613;-71
2023/08/11 03:57:38;;;;;;;5.37;4.93;;;19.40;53.40;;;;;;20733;6839;118696;-71
2023/08/11 04:00:04;;;;;;;5.60;5.20;;;19.20;53.50;;;;;;20530;6839;280123;-71
2023/08/11 04:02:30;;;;;;;5.20;4.90;;;19.20;53.70;;;;;;20676;6854;119021;-71
2023/08/11 04:04:55;;;;;;;5.40;5.00;;;19.10;53.80;;;;;;20503;6839;279112;-71
2023/08/11 04:07:21;;;;;;;5.47;5.00;;;19.10;53.60;;;;;;20737;6839;122195;-71
2023/08/11 04:09:48;;;;;;;4.70;4.40;;;19.00;53.60;;;;;;20736;6839;120291;-71
2023/08/11 04:12:12;;;;;;;5.43;5.03;;;18.70;54.00;;;;;;20536;6835;279533;-71
2023/08/11 04:14:37;;;;;;;4.73;4.40;;;18.80;54.50;;;;;;20730;6839;118302;-71
2023/08/11 04:17:03;;;;;;;5.13;4.63;;;18.80;54.20;;;;;;20517;6839;277569;-71
2023/08/11 04:19:29;;;;;;;4.47;4.10;;;18.90;54.00;;;;;;20694;6854;118702;-71
2023/08/11 04:21:54;;;;;;;5.10;4.70;;;18.70;54.00;;;;;;20528;6839;307957;-71
2023/08/11 04:24:20;;;;;;;4.80;4.40;;;18.70;53.80;;;;;;20732;6839;119294;-71
2023/08/11 04:26:45;;;;;;;5.32;4.82;;;18.60;54.10;;;;;;20520;6835;295012;-71
2023/08/11 04:29:12;;;;;;;5.10;4.73;;;18.60;54.00;;;;;;20727;6839;119195;-71
2023/08/11 04:31:38;;;;;;;5.18;4.80;;;18.50;54.10;;;;;;20520;6839;312654;-71
2023/08/11 04:34:05;;;;;;;4.80;4.40;;;18.60;53.80;;;;;;20747;6835;117587;-71
2023/08/11 04:36:30;;;;;;;5.40;4.90;;;18.60;53.80;;;;;;20525;6839;277556;-71
2023/08/11 04:38:55;;;;;;;5.30;4.90;;;18.60;53.80;;;;;;20528;6835;310234;-71
2023/08/11 04:41:21;;;;;;;5.70;5.20;;;18.80;53.40;;;;;;20520;6839;277598;-71
2023/08/11 04:43:46;;;;;;;5.00;4.70;;;19.00;53.90;;;;;;20521;6838;313341;-71
2023/08/11 04:46:12;;;;;;;5.18;4.85;;;19.10;53.20;;;;;;20523;6839;311403;-71
2023/08/11 04:48:40;;;;;;;5.18;4.60;;;19.00;53.30;;;;;;20740;6839;117083;-71
2023/08/11 04:51:06;;;;;;;5.00;4.60;;;18.60;53.80;;;;;;20720;6834;117142;-71
2023/08/11 04:53:32;;;;;;;5.33;4.87;;;18.60;53.70;;;;;;20735;6839;117099;-71
2023/08/11 04:55:57;;;;;;;6.03;4.70;;;18.30;54.20;;;;;;20737;6839;117011;-71
2023/08/11 04:58:22;;;;;;;4.80;4.50;;;18.10;54.70;;;;;;20743;6839;117145;-71
2023/08/11 05:00:48;;;;;;;5.60;5.30;;;18.00;55.20;;;;;;20511;6839;278652;-71
2023/08/11 05:03:14;;;;;;;5.82;5.43;;;18.20;55.20;;;;;;20741;6834;116336;-72
2023/08/11 05:05:41;;;;;;;5.97;5.53;;;18.20;55.10;;;;;;20732;6839;119833;-72
2023/08/11 05:08:05;;;;;;;5.50;5.10;;;18.10;55.30;;;;;;20531;6834;277879;-72
2023/08/11 05:10:31;;;;;;;5.22;4.82;;;18.30;55.60;;;;;;20736;6839;117201;-72
2023/08/11 05:12:56;;;;;;;4.95;4.43;;;18.40;55.50;;;;;;20654;6854;121927;-72
2023/08/11 05:15:22;;;;;;;5.35;4.95;;;18.30;55.60;;;;;;20734;6839;117216;-72
2023/08/11 05:17:48;;;;;;;4.85;4.40;;;18.20;55.80;;;;;;20730;6839;119723;-72
2023/08/11 05:20:14;;;;;;;5.90;5.50;;;18.10;55.90;;;;;;20527;6839;278044;-72
2023/08/11 05:22:40;;;;;;;5.68;5.28;;;18.80;55.50;;;;;;20466;6854;307136;-72
2023/08/11 05:25:06;;;;;;;5.33;4.90;;;18.80;55.10;;;;;;20708;6839;119983;-72
2023/08/11 05:27:32;;;;;;;5.20;4.90;;;18.70;55.20;;;;;;20722;6839;119368;-71
2023/08/11 05:29:57;;;;;;;8.00;4.93;;;18.70;55.10;;;;;;20743;6835;119283;-72
2023/08/11 05:32:26;;;;;;;5.37;4.97;;;18.50;55.30;;;;;;20539;6835;306592;-71
2023/08/11 05:34:51;;;;;;;4.67;4.30;;;18.80;55.50;;;;;;20725;6835;122955;-72
2023/08/11 05:37:17;;;;;;;5.47;4.93;;;18.80;55.30;;;;;;20466;6854;307692;-72
2023/08/11 05:39:43;;;;;;;4.83;4.47;;;19.00;55.00;;;;;;20733;6839;117837;-71
2023/08/11 05:42:08;;;;;;;5.22;4.72;;;19.00;54.90;;;;;;20520;6839;278972;-71
2023/08/11 05:44:34;;;;;;;5.00;4.70;;;19.50;54.40;;;;;;20519;6839;310242;-71
2023/08/11 05:47:00;;;;;;;5.00;4.70;;;19.50;54.40;;;;;;20514;6835;337294;-72
2023/08/11 05:49:26;;;;;;;5.03;4.70;;;19.80;54.10;;;;;;20515;6839;337477;-72
2023/08/11 05:51:51;;;;;;;4.35;4.05;;;20.00;53.60;;;;;;20747;6835;117984;-73
2023/08/11 05:54:17;;;;;;;4.60;4.23;;;19.90;53.90;;;;;;20733;6839;117201;-71
2023/08/11 05:56:43;;;;;;;4.40;4.10;;;19.60;54.30;;;;;;20738;6838;119306;-71
2023/08/11 05:59:08;;;;;;;4.85;4.47;;;19.40;54.70;;;;;;20488;6839;308447;-71
2023/08/11 06:01:35;;;;;;;4.40;4.13;;;19.60;54.80;;;;;;20687;6854;117302;-72
2023/08/11 06:04:00;;;;;;;4.60;4.30;;;19.50;54.60;;;;;;20727;6839;119374;-71
2023/08/11 06:06:26;;;;;;;5.10;4.60;;;19.40;54.80;;;;;;20536;6834;292807;-71
2023/08/11 06:08:54;;;;;;;5.18;4.80;;;19.60;54.40;;;;;;20512;6834;311985;-71
2023/08/11 06:11:17;;;;;;;5.43;5.03;;;19.90;53.80;;;;;;20508;6839;341169;-71
2023/08/11 06:13:43;;;;;;;4.30;4.10;;;20.20;53.30;;;;;;20685;6854;119874;-71
2023/08/11 06:16:08;;;;;;;4.93;4.23;;;20.20;53.40;;;;;;20720;6839;117261;-71
2023/08/11 06:18:35;;;;;;;5.00;4.68;;;20.00;53.60;;;;;;20521;6839;278603;-71
2023/08/11 06:21:03;;;;;;;4.80;4.40;;;20.00;53.60;;;;;;20702;6839;119518;-71
2023/08/11 06:23:27;;;;;;;5.47;5.07;;;20.00;53.60;;;;;;20465;6854;303350;-71
2023/08/11 06:25:53;;;;;;;4.40;4.00;;;20.20;53.70;;;;;;20730;6839;117565;-71
2023/08/11 06:28:19;;;;;;;5.05;4.55;;;20.20;53.80;;;;;;20514;6839;307624;-71
2023/08/11 06:30:44;;;;;;;5.10;4.50;;;20.40;53.90;;;;;;20663;6854;119352;-73
2023/08/11 06:33:09;;;;;;;5.27;4.77;;;20.40;53.90;;;;;;20505;6839;311281;-72
2023/08/11 06:35:35;;;;;;;4.37;4.07;;;20.60;53.80;;;;;;20730;6839;119690;-72
2023/08/11 06:38:01;;;;;;;5.18;4.68;;;20.70;53.80;;;;;;20518;6839;306835;-71
2023/08/11 06:40:26;;;;;;;5.00;4.60;;;20.90;53.50;;;;;;20542;6835;285094;-71
2023/08/11 06:42:52;;;;;;;4.77;4.30;;;21.40;53.20;;;;;;20718;6839;118228;-71
2023/08/11 06:45:18;;;;;;;4.90;4.50;;;21.40;53.20;;;;;;20742;6835;118203;-71
2023/08/11 06:47:44;;;;;;;4.57;3.92;;;21.30;53.30;;;;;;20760;6835;117539;-71
2023/08/11 06:50:09;;;;;;;4.80;4.50;;;21.30;53.70;;;;;;20523;6839;278722;-72
2023/08/11 06:52:35;;;;;;;5.60;4.80;;;21.70;52.60;;;;;;20538;6835;306627;-71
2023/08/11 06:55:00;;;;;;;4.57;4.12;;;22.40;51.60;;;;;;20724;6835;130050;-71
2023/08/11 06:57:26;;;;;;;5.12;4.70;;;22.70;51.60;;;;;;20528;6839;278693;-71
2023/08/11 06:59:53;;;;;;;5.00;4.50;;;23.10;49.90;;;;;;20526;6839;309060;-72
2023/08/11 07:02:19;;;;;;;5.07;4.67;;;23.70;48.90;;;;;;20475;6854;313324;-71
2023/08/11 07:04:44;;;;;;;5.30;4.50;;;24.20;48.00;;;;;;20675;6854;118313;-72
2023/08/11 07:07:10;;;;;;;4.87;4.20;;;24.30;48.30;;;;;;20730;6838;119404;-71
2023/08/11 07:09:35;;;;;;;4.87;4.43;;;24.10;48.60;;;;;;20526;6839;307956;-72
2023/08/11 07:12:01;;;;;;;6.33;4.47;;;24.30;47.50;;;;;;20750;6834;117627;-72
2023/08/11 07:14:26;;;;;;;4.60;4.20;;;24.30;47.80;;;;;;20745;6834;117250;-71
2023/08/11 07:16:53;;;;;;;4.95;4.43;;;24.40;47.60;;;;;;20499;6839;278553;-71
2023/08/11 07:19:18;;;;;;;4.80;4.45;;;24.40;47.50;;;;;;20524;6839;311809;-71
2023/08/11 07:21:44;;;;;;;5.80;4.40;;;24.80;47.00;;;;;;20516;6839;308008;-72
2023/08/11 07:24:10;;;;;;;4.93;4.53;;;25.20;46.10;;;;;;20537;6834;306963;-71
2023/08/11 07:26:35;;;;;;;7.30;4.43;;;25.40;45.90;;;;;;20523;6839;290157;-71
2023/08/11 07:29:00;;;;;;;4.85;4.45;;;25.70;45.10;;;;;;20733;6834;122428;-71
2023/08/11 07:31:26;;;;;;;4.70;4.35;;;25.60;45.20;;;;;;20539;6834;277510;-71
2023/08/11 07:33:52;;;;;;;4.55;4.25;;;25.60;44.60;;;;;;20528;6839;278017;-71
2023/08/11 07:36:17;;;;;;;4.90;4.50;;;25.90;44.30;;;;;;20526;6839;308747;-72
2023/08/11 07:38:43;;;;;;;5.47;4.50;;;26.10;44.20;;;;;;20525;6839;278000;-72
2023/08/11 07:41:10;;;;;;;4.70;4.20;;;26.40;43.60;;;;;;20499;6839;307917;-72
2023/08/11 07:43:35;;;;;;;4.50;4.10;;;26.60;43.60;;;;;;20711;6845;119158;-71
2023/08/11 07:46:01;;;;;;;4.97;4.20;;;26.60;43.70;;;;;;20528;6835;336857;-71
2023/08/11 07:48:26;;;;;;;3.90;3.70;;;26.60;42.80;;;;;;20729;6839;117673;-71
2023/08/11 07:50:52;;;;;;;4.63;4.20;;;26.60;43.40;;;;;;20713;6839;120761;-72
2023/08/11 07:53:17;;;;;;;4.30;3.87;;;26.50;44.20;;;;;;20727;6839;119985;-71
2023/08/11 07:55:43;;;;;;;4.50;4.10;;;26.40;44.70;;;;;;20513;6839;309151;-72
2023/08/11 07:58:09;;;;;;;3.90;3.70;;;26.60;43.50;;;;;;20724;6839;117066;-71
2023/08/11 08:00:34;;;;;;;4.27;3.97;;;26.80;43.90;;;;;;20521;6839;308394;-71
2023/08/11 08:03:00;;;;;;;4.73;3.90;;;27.10;43.40;;;;;;20446;6854;304088;-71
2023/08/11 08:05:25;;;;;;;4.30;3.93;;;27.60;42.80;;;;;;20728;6839;119462;-71
2023/08/11 08:07:51;;;;;;;3.80;3.57;;;27.70;43.00;;;;;;20732;6839;117264;-71
2023/08/11 08:10:16;;;;;;;4.47;4.03;;;27.70;43.50;;;;;;20536;6835;306963;-72
2023/08/11 08:12:42;;;;;;;3.90;3.60;;;27.90;42.10;;;;;;20729;6839;123516;-71
2023/08/11 08:15:08;;;;;;;4.27;3.93;;;28.10;42.40;;;;;;20720;6835;126060;-72
2023/08/11 08:17:34;;;;;;;4.40;4.10;;;28.30;41.70;;;;;;20531;6835;281768;-72
2023/08/11 08:20:00;;;;;;;3.63;3.43;;;28.40;41.80;;;;;;20743;6833;117282;-71
2023/08/11 08:22:25;;;;;;;3.67;3.47;;;28.50;42.20;;;;;;20518;6839;307665;-71
2023/08/11 08:24:51;;;;;;;5.30;3.93;;;28.80;41.90;;;;;;20522;6834;278386;-71
2023/08/11 08:27:23;;;;;;;4.50;4.10;;;29.40;41.30;;;;;;20531;6834;313719;-71
2023/08/11 08:29:42;;;;;;;4.23;3.90;;;29.80;39.70;;;;;;20514;6834;307910;-71
2023/08/11 08:32:07;;;;;;;4.32;4.07;;;30.10;39.90;;;;;;20515;6839;311903;-72
2023/08/11 08:34:33;;;;;;;3.90;3.70;;;30.40;40.10;;;;;;20750;6834;117121;-72
2023/08/11 08:36:58;;;;;;;4.43;4.10;;;30.30;39.40;;;;;;20724;6834;117392;-71
2023/08/11 08:39:24;;;;;;;3.97;3.60;;;30.00;39.80;;;;;;20750;6834;117268;-71
2023/08/11 08:41:50;;;;;;;4.30;3.90;;;29.80;40.10;;;;;;20521;6839;281180;-72
2023/08/11 08:44:15;;;;;;;4.47;4.17;;;29.90;39.40;;;;;;20463;6854;308077;-71
2023/08/11 08:46:41;;;;;;;4.40;4.10;;;30.30;38.80;;;;;;20515;6839;311287;-72
2023/08/11 08:49:06;;;;;;;4.40;4.00;;;30.60;38.50;;;;;;20520;6834;307595;-71
2023/08/11 08:51:32;;;;;;;4.60;4.20;;;30.80;38.50;;;;;;20730;6839;119728;-71
2023/08/11 08:53:57;;;;;;;4.50;4.20;;;30.70;38.40;;;;;;20543;6834;315050;-72
2023/08/11 08:56:23;;;;;;;6.00;4.35;;;30.80;38.10;;;;;;20534;6839;281991;-71
2023/08/11 08:58:49;;;;;;;4.20;3.78;;;31.00;37.70;;;;;;20498;6839;311762;-72
2023/08/11 09:01:16;;;;;;;4.20;3.80;;;31.10;38.30;;;;;;20727;6839;117322;-72
2023/08/11 09:03:42;;;;;;;4.22;3.90;;;31.10;38.30;;;;;;20514;6839;337177;-72
2023/08/11 09:06:07;;;;;;;4.07;3.80;;;31.10;37.90;;;;;;20468;6854;282708;-72
2023/08/11 09:08:33;;;;;;;5.13;3.90;;;31.30;37.70;;;;;;20737;6839;119354;-72
2023/08/11 09:10:59;;;;;;;3.95;3.65;;;31.30;38.10;;;;;;20506;6839;278431;-73
2023/08/11 09:13:24;;;;;;;3.70;3.50;;;31.30;37.50;;;;;;20752;6835;119337;-72
2023/08/11 09:15:50;;;;;;;4.10;3.80;;;31.30;37.90;;;;;;20518;6839;278639;-72
2023/08/11 09:18:16;;;;;;;4.28;3.80;;;31.30;36.50;;;;;;20525;6835;306922;-72
2023/08/11 09:20:42;;;;;;;3.70;3.50;;;31.50;36.20;;;;;;20744;6835;117086;-72
2023/08/11 09:23:08;;;;;;;4.90;3.60;;;31.50;36.60;;;;;;20675;6839;119533;-72
2023/08/11 09:25:33;;;;;;;4.00;3.65;;;31.30;36.70;;;;;;20519;6839;310517;-72
2023/08/11 09:28:00;;;;;;;4.05;3.85;;;31.60;35.90;;;;;;20513;6839;308074;-72
2023/08/11 09:30:29;;;;;;;4.77;3.83;;;31.60;35.80;;;;;;20734;6838;122970;-72
2023/08/11 09:32:55;;;;;;;3.40;3.20;;;31.60;35.80;;;;;;20728;6834;119334;-72
2023/08/11 09:35:23;;;;;;;4.60;3.60;;;31.40;35.90;;;;;;20724;6839;117577;-72
2023/08/11 09:37:49;;;;;;;3.43;3.13;;;31.30;36.20;;;;;;20729;6839;117135;-71
2023/08/11 09:40:15;;;;;;;3.40;3.00;;;31.20;36.20;;;;;;20673;6854;117146;-72
2023/08/11 09:42:42;;;;;;;3.73;3.13;;;31.20;36.10;;;;;;20726;6839;117049;-72
2023/08/11 09:45:09;;;;;;;3.60;3.40;;;31.30;36.30;;;;;;20709;6839;120048;-72
2023/08/11 09:47:33;;;;;;;3.10;2.90;;;31.30;35.80;;;;;;20725;6839;116971;-72
2023/08/11 09:49:59;;;;;;;3.58;3.28;;;31.30;35.50;;;;;;20537;6834;311872;-73
2023/08/11 09:52:24;;;;;;;3.30;3.10;;;31.60;34.00;;;;;;20724;6839;118220;-72
2023/08/11 09:54:50;;;;;;;4.10;3.00;;;31.70;34.50;;;;;;20669;6854;117673;-72
2023/08/11 09:57:16;;;;;;;3.50;3.30;;;32.00;33.20;;;;;;20523;6839;278644;-72
2023/08/11 09:59:42;;;;;;;3.60;3.30;;;31.90;33.10;;;;;;20479;6854;282685;-72
2023/08/11 10:02:07;;;;;;;3.20;3.00;;;32.40;34.30;;;;;;20508;6839;341158;-71
2023/08/11 10:04:44;;;;;;;3.10;2.80;;;32.80;35.00;;;;;;20703;6839;122622;-71
2023/08/11 10:07:09;;;;;;;3.23;3.03;;;32.80;34.30;;;;;;20653;6854;117885;-72
2023/08/11 10:09:35;;;;;;;3.15;3.05;;;32.70;34.40;;;;;;20680;6854;117314;-72
2023/08/11 10:12:01;;;;;;;3.50;3.30;;;32.50;34.10;;;;;;20729;6839;119405;-72
2023/08/11 10:14:26;;;;;;;4.17;2.97;;;32.50;34.00;;;;;;20718;6839;117183;-71
2023/08/11 10:16:53;;;;;;;3.50;3.20;;;32.40;34.30;;;;;;20512;6835;312414;-72
2023/08/11 10:19:19;;;;;;;2.80;2.70;;;32.70;33.60;;;;;;20724;6839;119968;-72
2023/08/11 10:21:44;;;;;;;3.10;2.80;;;32.80;33.60;;;;;;20529;6835;341218;-72
2023/08/11 10:24:11;;;;;;;2.80;2.70;;;33.30;31.30;;;;;;20535;6835;308279;-72
2023/08/11 10:26:36;;;;;;;2.90;2.77;;;33.30;31.20;;;;;;20527;6835;277949;-72
2023/08/11 10:29:02;;;;;;;2.60;2.50;;;33.60;31.30;;;;;;20706;6839;117355;-71
2023/08/11 10:31:28;;;;;;;3.33;3.10;;;33.50;31.30;;;;;;20531;6835;278013;-71
2023/08/11 10:33:54;;;;;;;3.03;2.92;;;33.70;32.10;;;;;;20504;6839;311142;-71
2023/08/11 10:36:25;;;;;;;2.80;2.60;;;33.60;32.00;;;;;;20729;6839;117726;-71
2023/08/11 10:38:58;;;;;;;4.57;2.87;;;33.60;32.60;;;;;;20728;6835;121322;-71
2023/08/11 10:41:23;;;;;;;3.10;2.90;;;33.40;33.20;;;;;;20515;6838;284146;-71
2023/08/11 10:43:50;;;;;;;5.13;3.03;;;33.60;33.60;;;;;;20755;6833;116074;-71
2023/08/11 10:46:26;;;;;;;3.00;2.80;;;33.60;32.90;;;;;;20470;6854;308564;-71
2023/08/11 10:49:08;;;;;;;3.03;2.93;;;33.70;31.60;;;;;;20708;6839;117197;-72
2023/08/11 10:51:35;;;;;;;3.13;2.90;;;33.70;31.40;;;;;;20517;6839;312465;-71
2023/08/11 10:54:00;;;;;;;4.37;2.73;;;33.70;31.40;;;;;;20513;6839;278787;-72
2023/08/11 10:56:39;;;;;;;2.72;2.62;;;34.00;31.70;;;;;;20433;6854;279530;-72
2023/08/11 10:59:15;;;;;;;2.80;2.70;;;34.20;30.90;;;;;;20661;6839;122085;-72
2023/08/11 11:01:41;;;;;;;2.80;2.60;;;34.00;31.10;;;;;;20678;6854;117181;-71
2023/08/11 11:04:06;;;;;;;2.70;2.50;;;33.70;32.20;;;;;;20722;6839;119301;-71
2023/08/11 11:06:32;;;;;;;2.70;2.50;;;33.50;32.50;;;;;;20520;6839;278384;-71
2023/08/11 11:08:58;;;;;;;2.53;2.43;;;33.70;32.50;;;;;;20726;6834;117078;-72
2023/08/11 11:11:24;;;;;;;2.40;2.30;;;33.80;32.10;;;;;;20525;6837;277997;-71
2023/08/11 11:13:50;;;;;;;2.55;2.45;;;33.90;32.60;;;;;;20510;6839;336798;-71
2023/08/11 11:16:15;;;;;;;2.30;2.20;;;34.20;32.60;;;;;;20744;6834;117061;-72
2023/08/11 11:18:42;;;;;;;2.47;2.30;;;34.30;32.20;;;;;;20736;6839;117203;-72
2023/08/11 11:21:07;;;;;;;2.87;2.57;;;34.20;30.50;;;;;;20515;6835;306957;-71
2023/08/11 11:23:32;;;;;;;2.10;2.00;;;34.20;30.50;;;;;;20538;6835;306689;-71
2023/08/11 11:25:58;;;;;;;2.22;2.12;;;34.40;30.00;;;;;;20533;6835;336106;-71
2023/08/11 11:28:23;;;;;;;2.23;2.13;;;34.60;30.90;;;;;;20542;6835;282548;-72
2023/08/11 11:30:49;;;;;;;2.37;2.17;;;34.70;31.30;;;;;;20495;6839;307110;-71
2023/08/11 11:33:14;;;;;;;2.30;2.20;;;34.80;30.00;;;;;;20748;6835;120293;-72
2023/08/11 11:35:41;;;;;;;2.23;2.13;;;34.50;30.00;;;;;;20519;6839;311054;-72
2023/08/11 11:38:06;;;;;;;2.30;2.20;;;34.60;30.00;;;;;;20535;6835;306522;-71
2023/08/11 11:40:32;;;;;;;4.97;2.33;;;34.70;30.00;;;;;;20521;6839;291691;-72
2023/08/11 11:42:57;;;;;;;2.10;2.00;;;34.80;29.80;;;;;;20509;6839;306827;-71
2023/08/11 11:45:23;;;;;;;2.37;2.27;;;35.00;30.20;;;;;;20688;6854;120596;-72
2023/08/11 11:47:49;;;;;;;2.20;2.00;;;34.60;30.00;;;;;;20686;6854;124571;-72
2023/08/11 11:50:15;;;;;;;2.20;2.10;;;34.60;30.00;;;;;;20520;6839;307574;-72
2023/08/11 11:52:46;;;;;;;2.45;2.28;;;34.50;30.00;;;;;;20523;6839;337957;-72
2023/08/11 11:55:06;;;;;;;2.10;2.00;;;34.70;29.00;;;;;;20708;6837;120126;-72
2023/08/11 11:57:32;;;;;;;2.10;2.00;;;34.60;29.80;;;;;;20693;6854;117132;-71
2023/08/11 11:59:57;;;;;;;2.13;2.03;;;34.30;30.00;;;;;;20689;6854;118134;-71
2023/08/11 12:02:23;;;;;;;1.87;1.80;;;34.10;30.20;;;;;;20522;6839;318087;-72
2023/08/11 12:04:48;;;;;;;1.87;1.77;;;34.20;30.40;;;;;;20715;6837;120833;-72
2023/08/11 12:07:30;;;;;;;2.50;2.10;;;34.20;30.00;;;;;;20527;6837;307899;-72
2023/08/11 12:09:56;;;;;;;1.97;1.87;;;34.20;30.10;;;;;;20739;6837;122840;-72
2023/08/11 12:12:25;;;;;;;2.00;1.90;;;34.20;29.90;;;;;;20729;6839;123700;-72
2023/08/11 12:14:50;;;;;;;1.80;1.60;;;33.90;29.80;;;;;;20658;6839;119272;-72
2023/08/11 12:17:16;;;;;;;2.97;1.70;;;33.70;30.00;;;;;;20657;6854;117422;-71
2023/08/11 12:19:41;;;;;;;1.93;1.80;;;33.60;30.10;;;;;;20707;6839;120144;-72
2023/08/11 12:22:07;;;;;;;3.13;1.83;;;33.50;30.30;;;;;;20494;6839;314322;-71
2023/08/11 12:24:32;;;;;;;2.00;1.90;;;33.70;29.40;;;;;;20493;6839;312724;-71
2023/08/11 12:26:58;;;;;;;1.63;1.53;;;33.90;30.20;;;;;;20703;6839;119800;-71
2023/08/11 12:29:25;;;;;;;1.50;1.50;;;33.90;30.30;;;;;;20718;6839;120011;-69